Tuesday, September 16, 2014
01:01 UTC
  |  Log In   |  Register Free
Airport Search:

Lincoln Airport
(KLNK)

FAA data valid effective July 24, 2014 until September 18, 2014 (unless otherwise noted).

 
 
 
 
 
 
 
 
 
 
 
 
 
 

Current Aviation Weather for Lincoln Airport (KLNK)

The most recent METAR observation for KLNK was updated at: 0012
METAR Summary (Translated METAR)
KLNK
152354Z 03006KT 10SM FEW044 16/07 A3025 RMK AO2 SLP240 T01610072 10194 20161 52003 $
KAHQ
152355Z AUTO 02004KT 10SM SCT045 16/07 A3024 RMK AO2 T01570066 10186 20157
(24.5 nm NE from KLNK)
KBIE
152355Z AUTO 02008KT 10SM CLR 17/08 A3023 RMK AO2 T01650079 10200 20165
(33 nm SE from KLNK)
TAF Summary (Translated TAF)
KLNK
151720Z 1518/1618 02014KT P6SM SCT030 TEMPO 1518/1519 BKN025 FM160000 VRB03KT P6SM SKC FM161200 19006KT P6SM BKN120
  Airport Weather Conditions for KLNK

 Current Weather at LNK
61° F
A Few Clouds
Northeast winds at 6.9 mph
LNK NOAA Radar

Pressure: 30.25 in
Humidity: 56%
Wind: Northeast at 6.9 MPH (6 KT)
Dew Point: 45.0°F
Visibility: 10.00 mi


Airport Weather Forecast for KLNK

Translated METAR and TAF for KLNK
Translated METAR for KLNK (0055 UTC 16 September 2014)
found at http://aviationweather.gov/adds/metars/
 
METAR text: KLNK 152354Z 03006KT 10SM FEW044 16/07 A3025 RMK AO2 SLP240 T01610072 10194 20161 52003 $
Conditions at: KLNK (LINCOLN , NE, US) observed 2354 UTC 15 September 2014
Temperature: 16.1°C (61°F)
Dewpoint: 7.2°C (45°F) [RH = 56%]
Pressure (altimeter): 30.25 inches Hg (1024.5 mb)
[Sea-level pressure: 1024.0 mb]
Winds: from the NNE (30 degrees) at 7 MPH (6 knots; 3.1 m/s)
Visibility: 10 or more miles (16+ km)
Ceiling: at least 12,000 feet AGL
Clouds: few clouds at 4400 feet AGL
Weather:
SOME DATA ABOVE MAY BE INACCURATE!!!
"$" is an indication the sensor requires maintenance
Translated TAF for KLNK
Forecast for: KLNK (LINCOLN , NE, US)
TAF Text: KLNK 152320Z 1600/1624 03005KT P6SM SKC
Forecast period: 0000 to 0200 UTC 16 September 2014
Forecast type: FROM: standard forecast or significant change
Winds: from the NNE (30 degrees) at 6 MPH (5 knots; 2.6 m/s)
Visibility: 6 or more miles (10+ km)
Clouds: clear skies
Weather: no significant weather forecast for this period
TAF Text: FM160200 VRB03KT P6SM SKC
Forecast period: 0200 to 1500 UTC 16 September 2014
Forecast type: FROM: standard forecast or significant change
Winds: variable direction winds at 3 MPH (3 knots; 1.6 m/s)
Visibility: 6 or more miles (10+ km)
Clouds: clear skies
Weather: no significant weather forecast for this period
TAF Text: TEMPO 1611/1614 2SM BR SCT005
Forecast period: 1100 to 1400 UTC 16 September 2014
Forecast type: TEMPORARY: The following changes expected for less than half the time period
Visibility: 2.00 miles (3.22 km)
Clouds: scattered clouds at 500 feet AGL
Weather: BR  (mist)
TAF Text: FM161500 19006KT P6SM SCT015
Forecast period: 1500 to 1800 UTC 16 September 2014
Forecast type: FROM: standard forecast or significant change
Winds: from the S (190 degrees) at 7 MPH (6 knots; 3.1 m/s)
Visibility: 6 or more miles (10+ km)
Clouds: scattered clouds at 1500 feet AGL
Weather: no significant weather forecast for this period
TAF Text: FM161800 18009KT P6SM BKN250
Forecast period: 1800 UTC 16 September 2014 to 0000 UTC 17 September 2014
Forecast type: FROM: standard forecast or significant change
Winds: from the S (180 degrees) at 10 MPH (9 knots; 4.7 m/s)
Visibility: 6 or more miles (10+ km)
Ceiling: 25000 feet AGL
Clouds: broken clouds at 25000 feet AGL
Weather: no significant weather forecast for this period

Find All Airport Services Find A Hotel Find A Rental Car Find A Golf Course Find A Restaurant $100 Hamburger



FBO's on the Field
FBO Company Facility Photos Services Transportation Aviation Fuel Prices: Prices include tax
Catering Weather Repair Courtesy Rental Type 100LL JetA JetA+ MOGAS 8087
 
Duncan Aviation

This FBO has not yet been rated
FS:Avfuel
Last Updated: Sep-09
Login to update fuel prices
SS:
Contact Duncan AviationMore FBO Information
 
Silverhawk Aviation

This FBO has not yet been rated
FS:Phillips66
Last Updated: Sep-09
Login to update fuel prices
SS:
Contact Silverhawk AviationMore FBO Information
 
Add another FBO Facility Photos Catering Weather Repair Courtesy Rental Type 100LL JetA JetA+ MOGAS 8087
Services Transportation Aviation Fuel Prices: Prices include tax


model-print
model-print
model-print
model-print